sensor_id;sensor_type;location;lat;lon;timestamp;pressure;altitude;pressure_sealevel;temperature;humidity
21401;BME280;18038;50.166;18.908;2023-02-13T00:02:41;99955.84;;;0.08;83.37
21401;BME280;18038;50.166;18.908;2023-02-13T00:05:48;99957.38;;;0.12;83.42
21401;BME280;18038;50.166;18.908;2023-02-13T00:08:54;99965.88;;;0.17;83.38
21401;BME280;18038;50.166;18.908;2023-02-13T00:12:01;99958.03;;;-0.00;83.73
21401;BME280;18038;50.166;18.908;2023-02-13T00:15:10;99954.63;;;-0.03;84.06
21401;BME280;18038;50.166;18.908;2023-02-13T00:18:16;99967.09;;;-0.06;84.19
21401;BME280;18038;50.166;18.908;2023-02-13T00:21:22;99959.47;;;0.05;83.67
21401;BME280;18038;50.166;18.908;2023-02-13T00:24:29;99947.34;;;0.03;83.64
21401;BME280;18038;50.166;18.908;2023-02-13T00:27:35;99960.94;;;0.11;83.51
21401;BME280;18038;50.166;18.908;2023-02-13T00:30:44;99963.56;;;0.11;83.69
21401;BME280;18038;50.166;18.908;2023-02-13T00:33:51;99963.66;;;0.09;83.43
21401;BME280;18038;50.166;18.908;2023-02-13T00:36:57;99953.59;;;0.17;83.45
21401;BME280;18038;50.166;18.908;2023-02-13T00:40:05;99952.88;;;0.14;83.91
21401;BME280;18038;50.166;18.908;2023-02-13T00:43:13;99947.50;;;0.17;83.75
21401;BME280;18038;50.166;18.908;2023-02-13T00:46:24;99948.84;;;0.24;84.00
21401;BME280;18038;50.166;18.908;2023-02-13T00:49:31;99956.06;;;0.36;83.51
21401;BME280;18038;50.166;18.908;2023-02-13T00:52:37;99954.91;;;0.58;82.51
21401;BME280;18038;50.166;18.908;2023-02-13T00:55:43;99952.88;;;0.63;81.76
21401;BME280;18038;50.166;18.908;2023-02-13T00:58:49;99942.16;;;0.66;81.85
21401;BME280;18038;50.166;18.908;2023-02-13T01:01:59;99944.97;;;0.63;81.99
21401;BME280;18038;50.166;18.908;2023-02-13T01:05:06;99951.44;;;0.57;81.49
21401;BME280;18038;50.166;18.908;2023-02-13T01:08:15;99949.47;;;0.61;82.00
21401;BME280;18038;50.166;18.908;2023-02-13T01:11:22;99940.72;;;0.60;81.54
21401;BME280;18038;50.166;18.908;2023-02-13T01:14:28;99942.50;;;0.44;82.01
21401;BME280;18038;50.166;18.908;2023-02-13T01:17:37;99945.63;;;0.35;82.39
21401;BME280;18038;50.166;18.908;2023-02-13T01:20:54;99944.72;;;0.36;82.57
21401;BME280;18038;50.166;18.908;2023-02-13T01:24:03;99946.41;;;0.53;82.07
21401;BME280;18038;50.166;18.908;2023-02-13T01:27:11;99943.13;;;0.65;81.26
21401;BME280;18038;50.166;18.908;2023-02-13T01:30:19;99930.16;;;0.62;80.93
21401;BME280;18038;50.166;18.908;2023-02-13T01:33:29;99933.50;;;0.64;81.46
21401;BME280;18038;50.166;18.908;2023-02-13T01:36:36;99920.28;;;0.66;81.60
21401;BME280;18038;50.166;18.908;2023-02-13T01:39:42;99903.84;;;0.46;81.87
21401;BME280;18038;50.166;18.908;2023-02-13T01:42:48;99919.94;;;0.56;81.90
21401;BME280;18038;50.166;18.908;2023-02-13T01:45:56;99917.47;;;0.69;82.14
21401;BME280;18038;50.166;18.908;2023-02-13T01:49:24;99912.75;;;0.75;81.98
21401;BME280;18038;50.166;18.908;2023-02-13T01:52:33;99910.84;;;0.77;81.55
21401;BME280;18038;50.166;18.908;2023-02-13T01:55:47;99908.56;;;0.71;81.95
21401;BME280;18038;50.166;18.908;2023-02-13T01:59:01;99910.19;;;0.74;82.29
21401;BME280;18038;50.166;18.908;2023-02-13T02:02:12;99905.88;;;0.73;82.65
21401;BME280;18038;50.166;18.908;2023-02-13T02:05:26;99902.28;;;0.74;82.71
21401;BME280;18038;50.166;18.908;2023-02-13T02:08:35;99910.13;;;0.59;83.33
21401;BME280;18038;50.166;18.908;2023-02-13T02:11:51;99899.59;;;0.59;83.79
21401;BME280;18038;50.166;18.908;2023-02-13T02:15:06;99904.50;;;0.66;84.02
21401;BME280;18038;50.166;18.908;2023-02-13T02:18:16;99908.94;;;0.65;84.23
21401;BME280;18038;50.166;18.908;2023-02-13T02:21:59;99896.63;;;0.66;84.62
21401;BME280;18038;50.166;18.908;2023-02-13T02:29:43;99890.56;;;0.79;84.54
21401;BME280;18038;50.166;18.908;2023-02-13T02:33:31;99890.56;;;0.79;84.45
21401;BME280;18038;50.166;18.908;2023-02-13T02:37:00;99890.22;;;0.85;84.63
21401;BME280;18038;50.166;18.908;2023-02-13T02:40:24;99887.59;;;0.85;84.24
21401;BME280;18038;50.166;18.908;2023-02-13T02:43:52;99897.97;;;0.89;84.80
21401;BME280;18038;50.166;18.908;2023-02-13T02:47:10;99887.06;;;0.95;84.82
21401;BME280;18038;50.166;18.908;2023-02-13T02:50:46;99899.66;;;0.90;85.16
21401;BME280;18038;50.166;18.908;2023-02-13T02:54:05;99900.22;;;0.95;85.53
21401;BME280;18038;50.166;18.908;2023-02-13T02:57:31;99891.97;;;1.01;85.46
21401;BME280;18038;50.166;18.908;2023-02-13T03:00:54;99893.84;;;0.99;85.18
21401;BME280;18038;50.166;18.908;2023-02-13T03:04:35;99897.34;;;0.99;85.49
21401;BME280;18038;50.166;18.908;2023-02-13T03:08:01;99895.00;;;1.09;85.57
21401;BME280;18038;50.166;18.908;2023-02-13T03:11:09;99902.16;;;1.07;85.05
21401;BME280;18038;50.166;18.908;2023-02-13T03:14:42;99891.53;;;1.09;85.28
21401;BME280;18038;50.166;18.908;2023-02-13T03:17:49;99891.28;;;1.13;84.87
21401;BME280;18038;50.166;18.908;2023-02-13T03:21:15;99893.50;;;1.05;84.90
21401;BME280;18038;50.166;18.908;2023-02-13T03:24:52;99905.53;;;1.09;84.98
21401;BME280;18038;50.166;18.908;2023-02-13T03:28:16;99898.38;;;0.97;85.11
21401;BME280;18038;50.166;18.908;2023-02-13T03:31:52;99894.34;;;1.05;85.34
21401;BME280;18038;50.166;18.908;2023-02-13T03:35:18;99900.72;;;1.01;85.06
21401;BME280;18038;50.166;18.908;2023-02-13T03:38:52;99897.63;;;1.09;85.61
21401;BME280;18038;50.166;18.908;2023-02-13T03:42:10;99892.56;;;1.06;85.11
21401;BME280;18038;50.166;18.908;2023-02-13T03:45:28;99894.44;;;1.04;85.16
21401;BME280;18038;50.166;18.908;2023-02-13T03:48:50;99892.91;;;1.00;85.41
21401;BME280;18038;50.166;18.908;2023-02-13T03:52:17;99894.44;;;1.04;85.85
21401;BME280;18038;50.166;18.908;2023-02-13T03:55:33;99884.78;;;1.04;85.67
21401;BME280;18038;50.166;18.908;2023-02-13T03:59:02;99877.13;;;1.00;85.89
21401;BME280;18038;50.166;18.908;2023-02-13T04:02:24;99899.34;;;1.10;85.92
21401;BME280;18038;50.166;18.908;2023-02-13T04:05:42;99893.69;;;1.02;85.96
21401;BME280;18038;50.166;18.908;2023-02-13T04:08:51;99901.84;;;0.97;86.34
21401;BME280;18038;50.166;18.908;2023-02-13T04:12:05;99890.88;;;1.05;86.26
21401;BME280;18038;50.166;18.908;2023-02-13T04:15:28;99891.78;;;1.04;85.76
21401;BME280;18038;50.166;18.908;2023-02-13T04:18:41;99891.97;;;1.01;86.29
21401;BME280;18038;50.166;18.908;2023-02-13T04:21:54;99883.50;;;0.96;85.99
21401;BME280;18038;50.166;18.908;2023-02-13T04:25:03;99897.59;;;0.95;85.75
21401;BME280;18038;50.166;18.908;2023-02-13T04:28:09;99899.28;;;0.96;86.15
21401;BME280;18038;50.166;18.908;2023-02-13T04:31:19;99891.97;;;1.01;86.09
21401;BME280;18038;50.166;18.908;2023-02-13T04:34:25;99890.88;;;1.05;85.97
21401;BME280;18038;50.166;18.908;2023-02-13T04:37:32;99883.75;;;1.07;85.48
21401;BME280;18038;50.166;18.908;2023-02-13T04:40:37;99881.13;;;1.07;85.16
21401;BME280;18038;50.166;18.908;2023-02-13T04:43:44;99889.56;;;1.12;85.02
21401;BME280;18038;50.166;18.908;2023-02-13T04:46:53;99874.13;;;1.06;84.52
21401;BME280;18038;50.166;18.908;2023-02-13T04:49:59;99891.28;;;1.13;84.44
21401;BME280;18038;50.166;18.908;2023-02-13T04:53:05;99891.16;;;1.15;84.25
21401;BME280;18038;50.166;18.908;2023-02-13T04:56:12;99890.88;;;1.05;84.56
21401;BME280;18038;50.166;18.908;2023-02-13T04:59:21;99892.97;;;1.14;84.71
21401;BME280;18038;50.166;18.908;2023-02-13T05:02:30;99897.56;;;1.11;84.18
21401;BME280;18038;50.166;18.908;2023-02-13T05:05:37;99897.75;;;1.07;84.83
21401;BME280;18038;50.166;18.908;2023-02-13T05:08:45;99893.16;;;1.11;84.75
21401;BME280;18038;50.166;18.908;2023-02-13T05:11:51;99893.69;;;1.02;84.80
21401;BME280;18038;50.166;18.908;2023-02-13T05:14:59;99888.25;;;1.05;85.37
21401;BME280;18038;50.166;18.908;2023-02-13T05:18:07;99889.75;;;1.09;85.29
21401;BME280;18038;50.166;18.908;2023-02-13T05:21:14;99887.16;;;1.23;84.71
21401;BME280;18038;50.166;18.908;2023-02-13T05:24:32;99894.69;;;1.15;83.82
21401;BME280;18038;50.166;18.908;2023-02-13T05:27:39;99892.38;;;1.09;84.11
21401;BME280;18038;50.166;18.908;2023-02-13T05:30:45;99900.44;;;1.06;84.11
21401;BME280;18038;50.166;18.908;2023-02-13T05:33:54;99897.09;;;0.88;84.37
21401;BME280;18038;50.166;18.908;2023-02-13T05:37:00;99893.13;;;0.81;84.27
21401;BME280;18038;50.166;18.908;2023-02-13T05:40:08;99881.94;;;0.61;84.47
21401;BME280;18038;50.166;18.908;2023-02-13T05:43:15;99879.66;;;0.55;85.04
21401;BME280;18038;50.166;18.908;2023-02-13T05:46:22;99878.06;;;0.53;85.34
21401;BME280;18038;50.166;18.908;2023-02-13T05:49:30;99875.34;;;0.54;85.21
21401;BME280;18038;50.166;18.908;2023-02-13T05:52:37;99889.75;;;0.63;85.19
21401;BME280;18038;50.166;18.908;2023-02-13T05:55:43;99886.28;;;0.62;84.61
21401;BME280;18038;50.166;18.908;2023-02-13T05:58:50;99896.00;;;0.76;85.06
21401;BME280;18038;50.166;18.908;2023-02-13T06:01:57;99893.31;;;0.78;83.68
21401;BME280;18038;50.166;18.908;2023-02-13T06:05:06;99889.38;;;0.85;83.58
21401;BME280;18038;50.166;18.908;2023-02-13T06:08:12;99898.03;;;0.87;82.93
21401;BME280;18038;50.166;18.908;2023-02-13T06:11:19;99901.28;;;0.76;82.99
21401;BME280;18038;50.166;18.908;2023-02-13T06:14:25;99889.66;;;0.65;83.47
21401;BME280;18038;50.166;18.908;2023-02-13T06:17:32;99898.13;;;0.70;83.86
21401;BME280;18038;50.166;18.908;2023-02-13T06:20:41;99903.91;;;0.76;83.49
21401;BME280;18038;50.166;18.908;2023-02-13T06:23:47;99911.88;;;0.75;82.85
21401;BME280;18038;50.166;18.908;2023-02-13T06:26:53;99920.09;;;0.84;83.17
21401;BME280;18038;50.166;18.908;2023-02-13T06:30:00;99914.66;;;0.88;82.48
21401;BME280;18038;50.166;18.908;2023-02-13T06:33:06;99911.84;;;0.91;82.37
21401;BME280;18038;50.166;18.908;2023-02-13T06:36:16;99905.84;;;0.89;81.95
21401;BME280;18038;50.166;18.908;2023-02-13T06:39:22;99901.44;;;0.89;82.25
21401;BME280;18038;50.166;18.908;2023-02-13T06:42:29;99916.69;;;0.82;81.83
21401;BME280;18038;50.166;18.908;2023-02-13T06:45:36;99910.84;;;0.77;81.68
21401;BME280;18038;50.166;18.908;2023-02-13T06:48:48;99913.22;;;0.98;81.76
21401;BME280;18038;50.166;18.908;2023-02-13T06:52:01;99909.19;;;1.06;81.02
21401;BME280;18038;50.166;18.908;2023-02-13T06:55:07;99909.59;;;1.15;80.46
21401;BME280;18038;50.166;18.908;2023-02-13T06:58:16;99909.25;;;1.21;80.72
21401;BME280;18038;50.166;18.908;2023-02-13T07:01:23;99909.34;;;1.19;80.60
21401;BME280;18038;50.166;18.908;2023-02-13T07:04:29;99909.00;;;1.25;80.45
21401;BME280;18038;50.166;18.908;2023-02-13T07:07:46;99918.31;;;1.31;80.26
21401;BME280;18038;50.166;18.908;2023-02-13T07:10:51;99919.22;;;1.60;79.87
21401;BME280;18038;50.166;18.908;2023-02-13T07:13:59;99918.78;;;1.82;78.93
21401;BME280;18038;50.166;18.908;2023-02-13T07:17:06;99914.16;;;1.86;77.74
21401;BME280;18038;50.166;18.908;2023-02-13T07:20:13;99910.94;;;1.66;77.83
21401;BME280;18038;50.166;18.908;2023-02-13T07:23:22;99907.22;;;1.85;77.94
21401;BME280;18038;50.166;18.908;2023-02-13T07:26:29;99916.97;;;2.26;76.81
21401;BME280;18038;50.166;18.908;2023-02-13T07:29:37;99913.97;;;2.73;75.18
21401;BME280;18038;50.166;18.908;2023-02-13T07:32:44;99926.81;;;3.46;73.36
21401;BME280;18038;50.166;18.908;2023-02-13T07:35:51;99905.97;;;3.42;71.56
21401;BME280;18038;50.166;18.908;2023-02-13T07:39:00;99912.41;;;3.25;71.25
21401;BME280;18038;50.166;18.908;2023-02-13T07:42:12;99920.19;;;3.66;71.73
21401;BME280;18038;50.166;18.908;2023-02-13T07:45:19;99916.84;;;4.27;68.76
21401;BME280;18038;50.166;18.908;2023-02-13T07:48:26;99908.13;;;4.50;68.14
21401;BME280;18038;50.166;18.908;2023-02-13T07:51:34;99921.09;;;4.29;69.03
21401;BME280;18038;50.166;18.908;2023-02-13T07:54:42;99924.25;;;4.34;68.83
21401;BME280;18038;50.166;18.908;2023-02-13T07:57:52;99919.66;;;4.00;69.55
21401;BME280;18038;50.166;18.908;2023-02-13T08:00:58;99917.75;;;4.02;69.83
21401;BME280;18038;50.166;18.908;2023-02-13T08:04:10;99911.81;;;4.11;69.64
21401;BME280;18038;50.166;18.908;2023-02-13T08:07:16;99915.84;;;3.91;69.97
21401;BME280;18038;50.166;18.908;2023-02-13T08:10:26;99912.78;;;3.59;70.96
21401;BME280;18038;50.166;18.908;2023-02-13T08:13:46;99904.78;;;3.20;72.30
21401;BME280;18038;50.166;18.908;2023-02-13T08:16:53;99902.97;;;3.08;73.42
21401;BME280;18038;50.166;18.908;2023-02-13T08:19:59;99909.44;;;3.02;74.62
21401;BME280;18038;50.166;18.908;2023-02-13T08:23:09;99914.00;;;3.00;74.46
21401;BME280;18038;50.166;18.908;2023-02-13T08:26:18;99907.13;;;3.25;74.26
21401;BME280;18038;50.166;18.908;2023-02-13T08:29:25;99912.06;;;3.17;74.46
21401;BME280;18038;50.166;18.908;2023-02-13T08:32:31;99919.22;;;3.15;73.76
21401;BME280;18038;50.166;18.908;2023-02-13T08:35:55;99914.06;;;3.26;74.34
21401;BME280;18038;50.166;18.908;2023-02-13T08:39:02;99907.94;;;3.25;73.74
21401;BME280;18038;50.166;18.908;2023-02-13T08:42:11;99929.31;;;3.35;73.73
21401;BME280;18038;50.166;18.908;2023-02-13T08:45:17;99917.75;;;3.23;74.22
21401;BME280;18038;50.166;18.908;2023-02-13T08:48:24;99921.66;;;3.18;74.19
21401;BME280;18038;50.166;18.908;2023-02-13T08:51:30;99916.38;;;3.18;74.64
21401;BME280;18038;50.166;18.908;2023-02-13T08:54:37;99914.91;;;3.14;74.75
21401;BME280;18038;50.166;18.908;2023-02-13T08:57:46;99914.06;;;2.99;75.11
21401;BME280;18038;50.166;18.908;2023-02-13T09:00:53;99916.16;;;3.08;75.71
21401;BME280;18038;50.166;18.908;2023-02-13T09:03:59;99906.53;;;3.07;75.83
21401;BME280;18038;50.166;18.908;2023-02-13T09:07:06;99912.97;;;3.43;75.63
21401;BME280;18038;50.166;18.908;2023-02-13T09:10:11;99920.88;;;3.43;74.62
21401;BME280;18038;50.166;18.908;2023-02-13T09:13:21;99912.28;;;3.26;75.52
21401;BME280;18038;50.166;18.908;2023-02-13T09:16:27;99913.03;;;3.29;75.66
21401;BME280;18038;50.166;18.908;2023-02-13T09:19:34;99913.69;;;3.32;75.54
21401;BME280;18038;50.166;18.908;2023-02-13T09:22:40;99918.78;;;3.61;75.56
21401;BME280;18038;50.166;18.908;2023-02-13T09:25:47;99919.31;;;3.40;75.25
21401;BME280;18038;50.166;18.908;2023-02-13T09:28:55;99918.97;;;3.45;76.42
21401;BME280;18038;50.166;18.908;2023-02-13T09:32:03;99918.69;;;3.62;75.43
21401;BME280;18038;50.166;18.908;2023-02-13T09:35:10;99918.94;;;3.85;75.04
21401;BME280;18038;50.166;18.908;2023-02-13T09:38:17;99927.88;;;4.08;74.59
21401;BME280;18038;50.166;18.908;2023-02-13T09:41:26;99928.63;;;4.23;73.70
21401;BME280;18038;50.166;18.908;2023-02-13T09:44:42;99925.47;;;4.18;74.01
21401;BME280;18038;50.166;18.908;2023-02-13T09:47:50;99922.38;;;4.11;73.82
21401;BME280;18038;50.166;18.908;2023-02-13T09:50:58;99918.38;;;4.05;74.10
21401;BME280;18038;50.166;18.908;2023-02-13T09:54:06;99912.69;;;3.99;74.32
21401;BME280;18038;50.166;18.908;2023-02-13T09:57:26;99918.72;;;4.01;74.65
21401;BME280;18038;50.166;18.908;2023-02-13T10:00:40;99916.38;;;3.83;74.75
21401;BME280;18038;50.166;18.908;2023-02-13T10:07:48;99924.41;;;3.56;76.60
21401;BME280;18038;50.166;18.908;2023-02-13T10:11:15;99918.16;;;3.70;76.08
21401;BME280;18038;50.166;18.908;2023-02-13T10:14:44;99908.44;;;3.83;76.63
21401;BME280;18038;50.166;18.908;2023-02-13T10:18:07;99913.31;;;3.64;77.18
21401;BME280;18038;50.166;18.908;2023-02-13T10:21:22;99911.69;;;3.48;77.59
21401;BME280;18038;50.166;18.908;2023-02-13T10:24:39;99899.88;;;3.67;77.64
21401;BME280;18038;50.166;18.908;2023-02-13T10:27:54;99899.44;;;3.35;77.96
21401;BME280;18038;50.166;18.908;2023-02-13T10:31:10;99896.22;;;3.17;79.07
21401;BME280;18038;50.166;18.908;2023-02-13T10:34:26;99892.97;;;2.99;79.36
21401;BME280;18038;50.166;18.908;2023-02-13T10:37:38;99881.38;;;2.74;79.57
21401;BME280;18038;50.166;18.908;2023-02-13T10:40:58;99868.69;;;2.67;80.65
21401;BME280;18038;50.166;18.908;2023-02-13T10:44:33;99869.66;;;2.78;80.75
21401;BME280;18038;50.166;18.908;2023-02-13T10:48:03;99865.84;;;2.70;81.20
21401;BME280;18038;50.166;18.908;2023-02-13T10:51:29;99861.81;;;2.64;80.80
21401;BME280;18038;50.166;18.908;2023-02-13T10:55:12;99862.56;;;2.66;80.62
21401;BME280;18038;50.166;18.908;2023-02-13T10:58:43;99847.00;;;2.89;80.94
21401;BME280;18038;50.166;18.908;2023-02-13T11:02:12;99851.97;;;2.93;80.51
21401;BME280;18038;50.166;18.908;2023-02-13T11:05:31;99842.56;;;2.89;80.51
21401;BME280;18038;50.166;18.908;2023-02-13T11:08:46;99837.31;;;2.62;81.11
21401;BME280;18038;50.166;18.908;2023-02-13T11:11:53;99841.81;;;2.47;82.31
21401;BME280;18038;50.166;18.908;2023-02-13T11:15:01;99839.84;;;2.64;81.79
21401;BME280;18038;50.166;18.908;2023-02-13T11:18:17;99843.75;;;2.71;81.27
21401;BME280;18038;50.166;18.908;2023-02-13T11:21:33;99844.81;;;2.95;81.02
21401;BME280;18038;50.166;18.908;2023-02-13T11:24:55;99836.56;;;3.27;79.79
21401;BME280;18038;50.166;18.908;2023-02-13T11:28:09;99831.59;;;3.35;78.51
21401;BME280;18038;50.166;18.908;2023-02-13T11:31:30;99836.97;;;3.08;79.72
21401;BME280;18038;50.166;18.908;2023-02-13T11:34:37;99832.53;;;2.94;80.51
21401;BME280;18038;50.166;18.908;2023-02-13T11:37:44;99827.44;;;2.78;80.45
21401;BME280;18038;50.166;18.908;2023-02-13T11:41:06;99834.47;;;2.92;80.68
21401;BME280;18038;50.166;18.908;2023-02-13T11:44:22;99820.81;;;2.86;80.69
21401;BME280;18038;50.166;18.908;2023-02-13T11:47:34;99829.88;;;3.09;80.28
21401;BME280;18038;50.166;18.908;2023-02-13T11:50:50;99823.44;;;3.13;79.98
21401;BME280;18038;50.166;18.908;2023-02-13T11:53:58;99821.69;;;2.99;80.68
21401;BME280;18038;50.166;18.908;2023-02-13T11:57:20;99810.06;;;3.01;81.52
21401;BME280;18038;50.166;18.908;2023-02-13T12:00:31;99811.75;;;3.02;81.62
21401;BME280;18038;50.166;18.908;2023-02-13T12:03:42;99805.06;;;3.11;81.60
21401;BME280;18038;50.166;18.908;2023-02-13T12:06:59;99810.13;;;3.14;81.21
21401;BME280;18038;50.166;18.908;2023-02-13T12:10:17;99809.19;;;3.28;81.87
21401;BME280;18038;50.166;18.908;2023-02-13T12:13:32;99811.00;;;3.40;81.61
21401;BME280;18038;50.166;18.908;2023-02-13T12:16:46;99799.91;;;3.48;80.63
21401;BME280;18038;50.166;18.908;2023-02-13T12:19:55;99798.09;;;3.61;80.88
21401;BME280;18038;50.166;18.908;2023-02-13T12:23:12;99798.94;;;3.62;79.69
21401;BME280;18038;50.166;18.908;2023-02-13T12:26:34;99786.78;;;3.46;80.53
21401;BME280;18038;50.166;18.908;2023-02-13T12:30:09;99793.34;;;3.54;79.82
21401;BME280;18038;50.166;18.908;2023-02-13T12:33:45;99793.22;;;3.42;80.16
21401;BME280;18038;50.166;18.908;2023-02-13T12:37:31;99801.91;;;3.44;80.35
21401;BME280;18038;50.166;18.908;2023-02-13T12:41:13;99795.03;;;3.55;80.09
21401;BME280;18038;50.166;18.908;2023-02-13T12:44:41;99805.50;;;3.56;79.85
21401;BME280;18038;50.166;18.908;2023-02-13T12:48:12;99803.16;;;3.52;80.23
21401;BME280;18038;50.166;18.908;2023-02-13T12:51:42;99800.13;;;3.32;80.35
21401;BME280;18038;50.166;18.908;2023-02-13T12:55:12;99799.81;;;3.24;81.59
21401;BME280;18038;50.166;18.908;2023-02-13T12:58:54;99807.50;;;3.27;81.27
21401;BME280;18038;50.166;18.908;2023-02-13T13:02:49;99798.09;;;3.23;81.18
21401;BME280;18038;50.166;18.908;2023-02-13T13:06:40;99794.91;;;3.18;81.46
21401;BME280;18038;50.166;18.908;2023-02-13T13:10:19;99797.44;;;3.07;82.35
21401;BME280;18038;50.166;18.908;2023-02-13T13:13:47;99788.56;;;3.08;82.17
21401;BME280;18038;50.166;18.908;2023-02-13T13:17:13;99799.81;;;2.97;82.47
21401;BME280;18038;50.166;18.908;2023-02-13T13:20:47;99801.06;;;3.06;82.08
21401;BME280;18038;50.166;18.908;2023-02-13T13:24:26;99794.25;;;3.01;82.66
21401;BME280;18038;50.166;18.908;2023-02-13T13:27:43;99800.78;;;2.96;83.27
21401;BME280;18038;50.166;18.908;2023-02-13T13:30:52;99800.84;;;3.09;83.07
21401;BME280;18038;50.166;18.908;2023-02-13T13:34:05;99785.56;;;2.99;82.58
21401;BME280;18038;50.166;18.908;2023-02-13T13:37:28;99792.38;;;3.03;82.96
21401;BME280;18038;50.166;18.908;2023-02-13T13:40:50;99791.53;;;3.16;82.79
21401;BME280;18038;50.166;18.908;2023-02-13T13:44:21;99796.50;;;3.33;82.20
21401;BME280;18038;50.166;18.908;2023-02-13T13:51:39;99791.88;;;3.24;81.43
21401;BME280;18038;50.166;18.908;2023-02-13T13:54:46;99799.16;;;3.33;81.89
21401;BME280;18038;50.166;18.908;2023-02-13T13:58:02;99793.44;;;3.39;81.53
21401;BME280;18038;50.166;18.908;2023-02-13T14:01:29;99795.16;;;3.28;81.64
21401;BME280;18038;50.166;18.908;2023-02-13T14:04:38;99791.53;;;3.29;81.46
21401;BME280;18038;50.166;18.908;2023-02-13T14:07:49;99789.88;;;3.28;81.87
21401;BME280;18038;50.166;18.908;2023-02-13T14:11:02;99789.66;;;3.31;81.99
21401;BME280;18038;50.166;18.908;2023-02-13T14:18:01;99787.63;;;3.34;81.30
21401;BME280;18038;50.166;18.908;2023-02-13T14:21:22;99789.03;;;3.27;81.42
21401;BME280;18038;50.166;18.908;2023-02-13T14:24:29;99790.69;;;3.28;81.53
21401;BME280;18038;50.166;18.908;2023-02-13T14:27:38;99785.94;;;3.20;81.57
21401;BME280;18038;50.166;18.908;2023-02-13T14:30:49;99795.16;;;3.28;81.55
21401;BME280;18038;50.166;18.908;2023-02-13T14:34:01;99787.63;;;3.09;82.67
21401;BME280;18038;50.166;18.908;2023-02-13T14:37:17;99798.66;;;2.88;81.86
21401;BME280;18038;50.166;18.908;2023-02-13T14:40:47;99781.94;;;2.35;79.85
21401;BME280;18038;50.166;18.908;2023-02-13T14:43:54;99778.66;;;2.31;80.58
21401;BME280;18038;50.166;18.908;2023-02-13T14:47:18;99781.03;;;2.22;80.12
21401;BME280;18038;50.166;18.908;2023-02-13T14:50:34;99778.47;;;1.93;80.44
21401;BME280;18038;50.166;18.908;2023-02-13T14:53:58;99782.44;;;1.71;81.00
21401;BME280;18038;50.166;18.908;2023-02-13T14:57:17;99782.88;;;1.92;80.73
21401;BME280;18038;50.166;18.908;2023-02-13T15:00:32;99775.41;;;2.13;80.83
21401;BME280;18038;50.166;18.908;2023-02-13T15:03:56;99771.03;;;2.27;80.04
21401;BME280;18038;50.166;18.908;2023-02-13T15:07:15;99764.31;;;2.35;79.92
21401;BME280;18038;50.166;18.908;2023-02-13T15:10:39;99766.03;;;2.49;80.31
21401;BME280;18038;50.166;18.908;2023-02-13T15:13:49;99765.25;;;2.61;80.00
21401;BME280;18038;50.166;18.908;2023-02-13T15:17:00;99773.38;;;2.58;80.57
21401;BME280;18038;50.166;18.908;2023-02-13T15:20:23;99763.31;;;2.51;80.73
21401;BME280;18038;50.166;18.908;2023-02-13T15:23:32;99769.28;;;2.40;80.85
21401;BME280;18038;50.166;18.908;2023-02-13T15:26:40;99762.84;;;2.44;81.17
21401;BME280;18038;50.166;18.908;2023-02-13T15:29:56;99764.06;;;2.53;81.00
21401;BME280;18038;50.166;18.908;2023-02-13T15:33:16;99762.16;;;2.55;80.77
21401;BME280;18038;50.166;18.908;2023-02-13T15:36:33;99772.69;;;2.55;80.42
21401;BME280;18038;50.166;18.908;2023-02-13T15:39:45;99756.44;;;2.48;80.34
21401;BME280;18038;50.166;18.908;2023-02-13T15:42:52;99751.03;;;2.37;80.96
21401;BME280;18038;50.166;18.908;2023-02-13T15:46:05;99745.50;;;2.27;80.86
21401;BME280;18038;50.166;18.908;2023-02-13T15:49:24;99747.81;;;2.05;79.78
21401;BME280;18038;50.166;18.908;2023-02-13T15:52:37;99763.06;;;2.14;80.11
21401;BME280;18038;50.166;18.908;2023-02-13T15:55:56;99759.94;;;2.22;79.89
21401;BME280;18038;50.166;18.908;2023-02-13T15:59:04;99758.28;;;2.06;79.00
21401;BME280;18038;50.166;18.908;2023-02-13T16:02:15;99752.81;;;2.09;79.00
21401;BME280;18038;50.166;18.908;2023-02-13T16:05:27;99750.03;;;1.98;79.03
21401;BME280;18038;50.166;18.908;2023-02-13T16:08:51;99766.03;;;1.95;78.96
21401;BME280;18038;50.166;18.908;2023-02-13T16:12:03;99755.22;;;1.85;79.10
21401;BME280;18038;50.166;18.908;2023-02-13T16:15:16;99764.78;;;2.01;78.97
21401;BME280;18038;50.166;18.908;2023-02-13T16:18:26;99766.59;;;2.00;78.63
21401;BME280;18038;50.166;18.908;2023-02-13T16:21:32;99776.38;;;1.98;78.59
21401;BME280;18038;50.166;18.908;2023-02-13T16:24:46;99774.38;;;2.02;78.49
21401;BME280;18038;50.166;18.908;2023-02-13T16:27:58;99760.56;;;1.98;78.37
21401;BME280;18038;50.166;18.908;2023-02-13T16:31:14;99774.88;;;1.94;78.58
21401;BME280;18038;50.166;18.908;2023-02-13T16:34:24;99776.19;;;2.01;78.80
21401;BME280;18038;50.166;18.908;2023-02-13T16:37:33;99765.38;;;1.91;78.64
21401;BME280;18038;50.166;18.908;2023-02-13T16:40:43;99760.25;;;1.61;78.72
21401;BME280;18038;50.166;18.908;2023-02-13T16:43:51;99772.19;;;1.67;78.96
21401;BME280;18038;50.166;18.908;2023-02-13T16:47:00;99774.72;;;1.68;78.90
21401;BME280;18038;50.166;18.908;2023-02-13T16:50:13;99778.13;;;1.70;78.62
21401;BME280;18038;50.166;18.908;2023-02-13T16:53:20;99777.81;;;1.75;78.35
21401;BME280;18038;50.166;18.908;2023-02-13T16:56:36;99778.13;;;1.70;77.42
21401;BME280;18038;50.166;18.908;2023-02-13T17:03:26;99791.00;;;1.75;76.45
21401;BME280;18038;50.166;18.908;2023-02-13T17:06:32;99778.13;;;1.70;76.86
21401;BME280;18038;50.166;18.908;2023-02-13T17:09:39;99772.75;;;1.72;76.15
21401;BME280;18038;50.166;18.908;2023-02-13T17:12:49;99755.97;;;1.73;75.90
21401;BME280;18038;50.166;18.908;2023-02-13T17:15:56;99764.84;;;1.72;76.35
21401;BME280;18038;50.166;18.908;2023-02-13T17:19:03;99757.03;;;1.85;76.48
21401;BME280;18038;50.166;18.908;2023-02-13T17:22:19;99756.47;;;1.80;76.12
21401;BME280;18038;50.166;18.908;2023-02-13T17:25:37;99739.06;;;1.77;76.74
21401;BME280;18038;50.166;18.908;2023-02-13T17:28:48;99748.47;;;1.81;76.20